Time;durP1;ratioP1;P1;durP2;ratioP2;P2;SDS_P1;SDS_P2;PMS_P1;PMS_P2;Temp;Humidity;BMP_temperature;BMP_pressure;BME280_temperature;BME280_humidity;BME280_pressure;Samples;Min_cycle;Max_cycle;Signal;HPM_P1;HPM_P2
2021/06/27 00:04:37;;;;;;;8.15;6.47;;;;;;;;;;10358781;28;20054;-80
2021/06/27 00:09:40;;;;;;;9.55;6.95;;;;;;;;;;10368097;28;20078;-80
2021/06/27 00:14:42;;;;;;;8.75;6.70;;;;;;;;;;10368030;28;20614;-80
2021/06/27 00:19:43;;;;;;;10.57;8.82;;;;;;;;;;10367667;28;20084;-79
2021/06/27 00:24:45;;;;;;;12.30;7.72;;;;;;;;;;10367753;28;20082;-79
2021/06/27 00:29:46;;;;;;;10.65;8.07;;;;;;;;;;10365942;28;20547;-79
2021/06/27 00:34:48;;;;;;;11.82;7.45;;;;;;;;;;10367053;28;20070;-80
2021/06/27 00:39:50;;;;;;;9.65;7.18;;;;;;;;;;10365232;28;20546;-79
2021/06/27 00:44:51;;;;;;;10.85;7.43;;;;;;;;;;10365135;28;20053;-79
2021/06/27 00:49:53;;;;;;;8.32;7.32;;;;;;;;;;10347740;28;20073;-79
2021/06/27 00:54:54;;;;;;;11.52;7.32;;;;;;;;;;10365628;28;20526;-79
2021/06/27 00:59:56;;;;;;;10.40;7.03;;;;;;;;;;10366010;28;20089;-80
2021/06/27 01:04:57;;;;;;;12.10;8.05;;;;;;;;;;10359678;28;20435;-80
2021/06/27 01:09:59;;;;;;;9.48;7.90;;;;;;;;;;10365474;28;20125;-80
2021/06/27 01:15:01;;;;;;;11.20;7.22;;;;;;;;;;10365457;28;20069;-79
2021/06/27 01:20:06;;;;;;;11.20;8.35;;;;;;;;;;10365237;28;20480;-80
2021/06/27 01:25:09;;;;;;;9.57;7.47;;;;;;;;;;10364084;28;20081;-80
2021/06/27 01:30:11;;;;;;;11.52;8.55;;;;;;;;;;10366166;28;20086;-80
2021/06/27 01:35:14;;;;;;;9.48;7.40;;;;;;;;;;10364270;28;20100;-80
2021/06/27 01:40:16;;;;;;;12.52;8.25;;;;;;;;;;10365763;28;20510;-79
2021/06/27 01:45:20;;;;;;;12.25;7.00;;;;;;;;;;10364028;28;20540;-80
2021/06/27 01:50:22;;;;;;;12.00;7.60;;;;;;;;;;10365306;28;20108;-80
2021/06/27 01:55:24;;;;;;;11.38;7.35;;;;;;;;;;10355791;28;20511;-79
2021/06/27 02:00:27;;;;;;;11.98;8.40;;;;;;;;;;10365118;28;20081;-80
2021/06/27 02:05:29;;;;;;;10.93;7.95;;;;;;;;;;10359298;28;20562;-80
2021/06/27 02:10:31;;;;;;;11.85;8.43;;;;;;;;;;10371639;28;20085;-79
2021/06/27 02:15:33;;;;;;;9.23;7.63;;;;;;;;;;10371209;28;20045;-79
2021/06/27 02:20:35;;;;;;;10.73;7.57;;;;;;;;;;10371156;28;20050;-80
2021/06/27 02:25:38;;;;;;;10.45;7.50;;;;;;;;;;10370659;28;20058;-80
2021/06/27 02:30:40;;;;;;;9.27;7.78;;;;;;;;;;10374248;28;20081;-80
2021/06/27 02:35:42;;;;;;;11.05;8.23;;;;;;;;;;10378875;28;20057;-80
2021/06/27 02:40:44;;;;;;;13.93;8.90;;;;;;;;;;10379016;28;20058;-80
2021/06/27 02:45:46;;;;;;;13.13;8.55;;;;;;;;;;10378515;28;20050;-79
2021/06/27 02:50:48;;;;;;;12.40;7.78;;;;;;;;;;10377381;28;20147;-80
2021/06/27 02:56:06;;;;;;;17.38;9.90;;;;;;;;;;10352130;28;20101;-80
2021/06/27 03:01:09;;;;;;;13.38;8.25;;;;;;;;;;10355375;28;20053;-80
2021/06/27 03:06:11;;;;;;;13.05;8.48;;;;;;;;;;10371266;28;20081;-79
2021/06/27 03:11:13;;;;;;;11.57;7.53;;;;;;;;;;10370157;28;20474;-79
2021/06/27 03:16:14;;;;;;;13.93;8.70;;;;;;;;;;10369169;28;20046;-80
2021/06/27 03:21:16;;;;;;;12.55;9.30;;;;;;;;;;10369342;28;20121;-80
2021/06/27 03:26:18;;;;;;;10.88;7.70;;;;;;;;;;10370672;28;20085;-80
2021/06/27 03:31:19;;;;;;;10.50;8.57;;;;;;;;;;10369774;28;20125;-79
2021/06/27 03:36:21;;;;;;;11.70;8.88;;;;;;;;;;10369906;28;20072;-79
2021/06/27 03:41:23;;;;;;;12.05;9.00;;;;;;;;;;10368851;28;20172;-79
2021/06/27 03:46:26;;;;;;;9.90;8.20;;;;;;;;;;10369481;28;20045;-80
2021/06/27 03:51:28;;;;;;;9.50;8.02;;;;;;;;;;10368078;28;20046;-79
2021/06/27 03:56:29;;;;;;;8.57;7.68;;;;;;;;;;10367199;28;20054;-79
2021/06/27 04:01:31;;;;;;;11.43;7.10;;;;;;;;;;10369041;28;20078;-79
2021/06/27 04:06:33;;;;;;;12.63;7.72;;;;;;;;;;10349083;28;20081;-79
2021/06/27 04:11:34;;;;;;;10.60;7.95;;;;;;;;;;10368174;28;20149;-80
2021/06/27 04:16:36;;;;;;;11.25;8.18;;;;;;;;;;10367575;28;20077;-80
2021/06/27 04:21:37;;;;;;;10.70;8.02;;;;;;;;;;10367806;28;20053;-80
2021/06/27 04:26:39;;;;;;;11.23;7.15;;;;;;;;;;10367819;28;20089;-80
2021/06/27 04:31:41;;;;;;;10.98;7.53;;;;;;;;;;10368002;28;20455;-80
2021/06/27 04:36:42;;;;;;;8.82;7.93;;;;;;;;;;10367137;28;20046;-80
2021/06/27 04:41:44;;;;;;;12.05;8.35;;;;;;;;;;10366727;28;20128;-80
2021/06/27 04:46:46;;;;;;;10.85;7.30;;;;;;;;;;10367008;28;20086;-80
2021/06/27 04:51:47;;;;;;;11.65;6.53;;;;;;;;;;10365973;28;20084;-80
2021/06/27 04:56:49;;;;;;;8.32;6.53;;;;;;;;;;10366776;28;20100;-80
2021/06/27 05:01:50;;;;;;;10.25;6.70;;;;;;;;;;10363797;28;20129;-80
2021/06/27 05:06:52;;;;;;;12.18;7.25;;;;;;;;;;10363135;28;20054;-80
2021/06/27 05:11:54;;;;;;;8.50;6.03;;;;;;;;;;10365919;28;20081;-80
2021/06/27 05:16:55;;;;;;;9.30;6.20;;;;;;;;;;10364664;28;20446;-80
2021/06/27 05:21:57;;;;;;;10.55;5.60;;;;;;;;;;10366515;28;20096;-80
2021/06/27 05:26:59;;;;;;;7.63;5.80;;;;;;;;;;10365562;28;20127;-80
2021/06/27 05:32:01;;;;;;;10.55;6.30;;;;;;;;;;10364249;28;20070;-80
2021/06/27 05:37:02;;;;;;;11.40;6.18;;;;;;;;;;10365346;28;20511;-80
2021/06/27 05:42:04;;;;;;;13.55;7.35;;;;;;;;;;10365176;28;20078;-80
2021/06/27 05:47:06;;;;;;;14.90;7.65;;;;;;;;;;10364246;28;20054;-80
2021/06/27 05:52:08;;;;;;;10.80;7.60;;;;;;;;;;10364453;28;20180;-80
2021/06/27 05:57:09;;;;;;;11.60;8.45;;;;;;;;;;10363252;28;20120;-81
2021/06/27 06:02:11;;;;;;;8.85;7.47;;;;;;;;;;10358931;28;20050;-80
2021/06/27 06:07:12;;;;;;;10.35;7.88;;;;;;;;;;10349965;28;20486;-80
2021/06/27 06:12:14;;;;;;;13.02;8.15;;;;;;;;;;10363621;28;20081;-80
2021/06/27 06:17:15;;;;;;;9.40;7.72;;;;;;;;;;10364854;28;20046;-80
2021/06/27 06:22:17;;;;;;;9.05;7.50;;;;;;;;;;10364002;28;20072;-81
2021/06/27 06:27:19;;;;;;;9.60;8.18;;;;;;;;;;10363880;28;20054;-80
2021/06/27 06:32:21;;;;;;;11.00;7.53;;;;;;;;;;10363853;28;20078;-80
2021/06/27 06:37:22;;;;;;;11.05;7.95;;;;;;;;;;10362941;28;20498;-80
2021/06/27 06:42:24;;;;;;;10.65;7.45;;;;;;;;;;10363459;28;20058;-80
2021/06/27 06:47:25;;;;;;;8.20;7.32;;;;;;;;;;10363883;28;20104;-80
2021/06/27 06:52:27;;;;;;;9.10;7.32;;;;;;;;;;10363336;28;20046;-80
2021/06/27 06:57:28;;;;;;;7.13;6.43;;;;;;;;;;10363093;28;20046;-81
2021/06/27 07:02:30;;;;;;;7.45;6.55;;;;;;;;;;10361477;28;20495;-81
2021/06/27 07:07:32;;;;;;;8.65;6.30;;;;;;;;;;10359481;28;20081;-81
2021/06/27 07:12:34;;;;;;;8.02;6.15;;;;;;;;;;10327052;28;20522;-81
2021/06/27 07:17:36;;;;;;;7.00;6.13;;;;;;;;;;10361868;28;20181;-81
2021/06/27 07:22:38;;;;;;;6.60;5.90;;;;;;;;;;10369976;28;20169;-81
2021/06/27 07:27:39;;;;;;;7.75;6.10;;;;;;;;;;10369327;28;20116;-81
2021/06/27 07:32:41;;;;;;;8.50;6.57;;;;;;;;;;10369214;28;20419;-81
2021/06/27 07:37:43;;;;;;;7.43;5.55;;;;;;;;;;10368671;28;20447;-81
2021/06/27 07:42:45;;;;;;;7.53;5.57;;;;;;;;;;10367832;28;20054;-80
2021/06/27 07:47:46;;;;;;;8.75;5.90;;;;;;;;;;10362911;28;20084;-81
2021/06/27 07:52:48;;;;;;;7.47;6.00;;;;;;;;;;10366790;28;20085;-81
2021/06/27 07:57:49;;;;;;;6.85;5.30;;;;;;;;;;10367221;28;20050;-81
2021/06/27 08:02:51;;;;;;;8.70;5.85;;;;;;;;;;10363113;28;20077;-81
2021/06/27 08:07:53;;;;;;;7.30;5.65;;;;;;;;;;10356017;28;20050;-81
2021/06/27 08:13:00;;;;;;;6.15;5.55;;;;;;;;;;10367356;28;20052;-81
2021/06/27 08:18:01;;;;;;;8.02;5.70;;;;;;;;;;10364613;28;20116;-81
2021/06/27 08:23:03;;;;;;;6.13;5.30;;;;;;;;;;10365991;28;20082;-81
2021/06/27 08:28:05;;;;;;;5.72;5.15;;;;;;;;;;10366831;28;20081;-81
2021/06/27 08:33:06;;;;;;;8.30;6.05;;;;;;;;;;10364448;28;20176;-80
2021/06/27 08:38:08;;;;;;;8.27;5.75;;;;;;;;;;10366772;28;20435;-80
2021/06/27 08:43:10;;;;;;;8.80;5.40;;;;;;;;;;10356336;28;20070;-80
2021/06/27 08:48:15;;;;;;;6.35;5.68;;;;;;;;;;10359778;28;20046;-81
2021/06/27 08:53:17;;;;;;;6.10;5.50;;;;;;;;;;10357133;28;20079;-80
2021/06/27 08:58:19;;;;;;;7.43;5.03;;;;;;;;;;10364478;28;20184;-81
2021/06/27 09:03:21;;;;;;;5.93;4.68;;;;;;;;;;10357996;28;20050;-81
2021/06/27 09:08:22;;;;;;;8.65;5.10;;;;;;;;;;10358922;28;20081;-81
2021/06/27 09:13:37;;;;;;;5.72;5.13;;;;;;;;;;10362926;28;20088;-80
2021/06/27 09:18:39;;;;;;;5.80;4.82;;;;;;;;;;10366181;28;20074;-80
2021/06/27 09:23:42;;;;;;;6.30;4.85;;;;;;;;;;10365071;28;20148;-79
2021/06/27 09:28:45;;;;;;;5.70;4.22;;;;;;;;;;10365009;28;20077;-80
2021/06/27 09:33:57;;;;;;;10.75;5.40;;;;;;;;;;10365299;28;20081;-80
2021/06/27 09:39:06;;;;;;;5.43;4.10;;;;;;;;;;10364011;28;20069;-81
2021/06/27 09:44:11;;;;;;;5.75;4.40;;;;;;;;;;10362503;28;20072;-81
2021/06/27 09:49:17;;;;;;;6.22;4.50;;;;;;;;;;10361059;28;20566;-79
2021/06/27 09:54:23;;;;;;;5.75;4.07;;;;;;;;;;10364287;28;20078;-80
2021/06/27 09:59:35;;;;;;;4.90;4.28;;;;;;;;;;10365453;28;20080;-80
2021/06/27 10:04:37;;;;;;;7.47;4.13;;;;;;;;;;10339897;28;20412;-80
2021/06/27 10:09:39;;;;;;;6.28;4.10;;;;;;;;;;10346928;28;20574;-80
2021/06/27 10:14:51;;;;;;;5.43;3.80;;;;;;;;;;10363970;28;20085;-80
2021/06/27 10:19:53;;;;;;;4.55;3.60;;;;;;;;;;10364518;28;20046;-80
2021/06/27 10:24:55;;;;;;;8.68;3.70;;;;;;;;;;10364489;28;20436;-80
2021/06/27 10:29:57;;;;;;;5.63;3.70;;;;;;;;;;10363205;28;20058;-80
2021/06/27 10:34:58;;;;;;;7.93;3.63;;;;;;;;;;10364512;28;20108;-80
2021/06/27 10:40:05;;;;;;;3.67;3.10;;;;;;;;;;10364790;28;20462;-79
2021/06/27 10:45:07;;;;;;;5.53;3.40;;;;;;;;;;10363180;28;20188;-79
2021/06/27 10:50:10;;;;;;;5.20;3.20;;;;;;;;;;10365505;28;20129;-79
2021/06/27 10:55:16;;;;;;;6.47;3.33;;;;;;;;;;10371668;28;20080;-80
2021/06/27 11:00:18;;;;;;;4.13;3.10;;;;;;;;;;10362866;28;20100;-79
2021/06/27 11:05:26;;;;;;;4.68;3.20;;;;;;;;;;10362790;28;20054;-79
2021/06/27 11:10:31;;;;;;;8.13;3.17;;;;;;;;;;10348501;28;20056;-80
2021/06/27 11:15:37;;;;;;;5.88;3.13;;;;;;;;;;10336036;28;20047;-80
2021/06/27 11:20:52;;;;;;;4.30;3.10;;;;;;;;;;10352219;28;20480;-80
2021/06/27 11:25:53;;;;;;;3.92;3.08;;;;;;;;;;10371839;28;20092;-80
2021/06/27 11:31:20;;;;;;;4.55;3.10;;;;;;;;;;10371461;28;20077;-80
2021/06/27 11:36:25;;;;;;;5.22;3.10;;;;;;;;;;10371252;28;20054;-81
2021/06/27 11:41:38;;;;;;;3.72;2.85;;;;;;;;;;10370341;28;20065;-81
2021/06/27 11:46:44;;;;;;;4.07;2.95;;;;;;;;;;10358763;28;20051;-81
2021/06/27 11:51:50;;;;;;;3.60;2.95;;;;;;;;;;10362328;28;20049;-79
2021/06/27 11:56:54;;;;;;;6.72;2.90;;;;;;;;;;10369956;28;20074;-80
2021/06/27 12:02:05;;;;;;;4.07;3.20;;;;;;;;;;10365960;28;20062;-79
2021/06/27 12:07:26;;;;;;;4.43;2.80;;;;;;;;;;10327660;28;20058;-79
2021/06/27 12:12:41;;;;;;;4.18;2.95;;;;;;;;;;10346294;28;20151;-79
2021/06/27 12:17:53;;;;;;;6.35;2.97;;;;;;;;;;10369381;28;20052;-79
2021/06/27 12:22:56;;;;;;;4.82;3.15;;;;;;;;;;10349447;28;20066;-79
2021/06/27 12:27:59;;;;;;;5.95;3.20;;;;;;;;;;10366863;28;20503;-79
2021/06/27 12:33:05;;;;;;;4.55;3.08;;;;;;;;;;10367243;28;20102;-79
2021/06/27 12:38:08;;;;;;;3.90;2.70;;;;;;;;;;10366646;28;20042;-79
2021/06/27 12:43:32;;;;;;;6.35;3.10;;;;;;;;;;10371063;28;20058;-80
2021/06/27 12:48:48;;;;;;;7.30;3.25;;;;;;;;;;10326122;28;20054;-79
2021/06/27 12:53:58;;;;;;;5.80;3.28;;;;;;;;;;10328850;28;20074;-79
2021/06/27 12:59:00;;;;;;;4.35;3.20;;;;;;;;;;10367322;28;20089;-79
2021/06/27 13:04:02;;;;;;;3.95;3.03;;;;;;;;;;10351977;28;20108;-79
2021/06/27 13:09:13;;;;;;;5.72;3.50;;;;;;;;;;10365686;28;20132;-79
2021/06/27 13:14:24;;;;;;;4.35;3.35;;;;;;;;;;10363991;28;20086;-79
2021/06/27 13:19:26;;;;;;;4.50;3.60;;;;;;;;;;10366332;28;20396;-79
2021/06/27 13:24:27;;;;;;;4.05;3.40;;;;;;;;;;10366419;28;20088;-79
2021/06/27 13:29:29;;;;;;;5.32;3.72;;;;;;;;;;10364336;28;20085;-79
2021/06/27 13:34:31;;;;;;;5.25;3.38;;;;;;;;;;10366086;28;20081;-79
2021/06/27 13:39:33;;;;;;;5.03;3.60;;;;;;;;;;10364549;28;20049;-79
2021/06/27 13:44:35;;;;;;;5.13;3.22;;;;;;;;;;10364561;28;20107;-79
2021/06/27 13:49:37;;;;;;;4.05;3.13;;;;;;;;;;10366298;28;20116;-79
2021/06/27 13:54:39;;;;;;;3.70;3.05;;;;;;;;;;10365615;28;20473;-79
2021/06/27 13:59:40;;;;;;;6.63;3.10;;;;;;;;;;10365885;28;20088;-79
2021/06/27 14:04:46;;;;;;;4.97;3.20;;;;;;;;;;10365421;28;20050;-79
2021/06/27 14:09:47;;;;;;;4.72;3.40;;;;;;;;;;10365330;28;20085;-79
2021/06/27 14:14:49;;;;;;;4.80;3.30;;;;;;;;;;10365146;28;20476;-79
2021/06/27 14:19:50;;;;;;;5.20;3.20;;;;;;;;;;10364003;28;20054;-79
2021/06/27 14:24:52;;;;;;;4.20;3.10;;;;;;;;;;10365389;28;20086;-79
2021/06/27 14:29:54;;;;;;;5.10;3.30;;;;;;;;;;10373582;28;20050;-79
2021/06/27 14:34:55;;;;;;;8.45;3.25;;;;;;;;;;10373136;28;20151;-79
2021/06/27 14:39:57;;;;;;;5.32;3.17;;;;;;;;;;10332459;28;20077;-79
2021/06/27 14:44:59;;;;;;;4.97;3.40;;;;;;;;;;10335509;28;20092;-79
2021/06/27 14:50:01;;;;;;;4.15;3.20;;;;;;;;;;10330853;28;20109;-79
2021/06/27 14:55:03;;;;;;;6.30;3.60;;;;;;;;;;10354755;28;20041;-79
2021/06/27 15:00:07;;;;;;;4.35;3.58;;;;;;;;;;10366432;28;20054;-79
2021/06/27 15:05:10;;;;;;;5.93;3.40;;;;;;;;;;10368387;28;20046;-79
2021/06/27 15:10:12;;;;;;;5.00;3.55;;;;;;;;;;10357696;28;20077;-79
2021/06/27 15:15:13;;;;;;;4.70;3.42;;;;;;;;;;10354894;28;20050;-79
2021/06/27 15:20:15;;;;;;;5.20;3.58;;;;;;;;;;10346041;28;20496;-80
2021/06/27 15:25:17;;;;;;;8.32;3.50;;;;;;;;;;10368854;28;20137;-80
2021/06/27 15:30:20;;;;;;;3.95;3.25;;;;;;;;;;10368376;28;20054;-80
2021/06/27 15:35:25;;;;;;;6.13;3.55;;;;;;;;;;10367907;28;20057;-80
2021/06/27 15:40:26;;;;;;;4.57;3.70;;;;;;;;;;10367720;28;20414;-80
2021/06/27 15:45:28;;;;;;;4.65;3.78;;;;;;;;;;10369018;28;20136;-80
2021/06/27 15:50:30;;;;;;;5.00;3.33;;;;;;;;;;10335539;28;20144;-80
2021/06/27 15:55:32;;;;;;;7.15;3.50;;;;;;;;;;10368770;28;20049;-80
2021/06/27 16:00:33;;;;;;;4.82;3.63;;;;;;;;;;10368582;28;20054;-80
2021/06/27 16:05:36;;;;;;;7.00;3.92;;;;;;;;;;10355989;28;20156;-80
2021/06/27 16:10:44;;;;;;;9.13;8.25;;;;;;;;;;10366688;28;20132;-80
2021/06/27 16:15:46;;;;;;;7.38;6.43;;;;;;;;;;10357823;28;20078;-80
2021/06/27 16:20:48;;;;;;;5.53;4.18;;;;;;;;;;10326931;28;20090;-80
2021/06/27 16:25:51;;;;;;;5.60;3.90;;;;;;;;;;10348304;28;20578;-79
2021/06/27 16:30:52;;;;;;;4.88;3.70;;;;;;;;;;10368091;28;20455;-80
2021/06/27 16:35:54;;;;;;;5.15;3.97;;;;;;;;;;10367642;28;20054;-79
2021/06/27 16:40:55;;;;;;;4.82;3.67;;;;;;;;;;10365363;28;20084;-80
2021/06/27 16:45:58;;;;;;;8.02;3.72;;;;;;;;;;10353397;28;20057;-80
2021/06/27 16:51:01;;;;;;;4.78;3.70;;;;;;;;;;10364871;28;20061;-80
2021/06/27 16:56:03;;;;;;;5.13;3.78;;;;;;;;;;10339894;28;20078;-79
2021/06/27 17:01:04;;;;;;;5.07;3.85;;;;;;;;;;10324925;28;20054;-79
2021/06/27 17:06:10;;;;;;;7.72;4.10;;;;;;;;;;10346845;28;20081;-79
2021/06/27 17:11:12;;;;;;;6.45;4.22;;;;;;;;;;10365444;28;20415;-79
2021/06/27 17:16:13;;;;;;;5.70;4.15;;;;;;;;;;10365158;28;20100;-79
2021/06/27 17:21:17;;;;;;;4.78;4.18;;;;;;;;;;10365394;28;20119;-79
2021/06/27 17:26:19;;;;;;;5.05;4.20;;;;;;;;;;10364168;28;20089;-79
2021/06/27 17:31:21;;;;;;;4.75;3.65;;;;;;;;;;10352029;28;20105;-79
2021/06/27 17:36:28;;;;;;;6.05;4.00;;;;;;;;;;10360501;28;20127;-79
2021/06/27 17:41:30;;;;;;;4.18;3.78;;;;;;;;;;10363593;28;20104;-79
2021/06/27 17:46:31;;;;;;;8.07;3.90;;;;;;;;;;10335575;28;20160;-79
2021/06/27 17:51:33;;;;;;;5.55;3.80;;;;;;;;;;10363873;28;20058;-79
2021/06/27 17:56:39;;;;;;;4.85;4.00;;;;;;;;;;10362946;28;20468;-79
2021/06/27 18:01:40;;;;;;;5.82;4.05;;;;;;;;;;10364453;28;20078;-79
2021/06/27 18:06:42;;;;;;;5.38;3.83;;;;;;;;;;10324776;28;20042;-79
2021/06/27 18:11:44;;;;;;;7.00;4.25;;;;;;;;;;10364631;28;20077;-79
2021/06/27 18:16:46;;;;;;;6.70;3.90;;;;;;;;;;10363031;28;20399;-79
2021/06/27 18:21:48;;;;;;;5.10;4.32;;;;;;;;;;10338895;28;20046;-79
2021/06/27 18:26:49;;;;;;;5.53;4.40;;;;;;;;;;10363162;28;20133;-79
2021/06/27 18:31:51;;;;;;;6.60;4.18;;;;;;;;;;10364028;28;20132;-79
2021/06/27 18:36:53;;;;;;;5.95;4.55;;;;;;;;;;10363483;28;20104;-79
2021/06/27 18:41:54;;;;;;;5.95;4.53;;;;;;;;;;10363373;28;20515;-79
2021/06/27 18:46:56;;;;;;;8.57;4.30;;;;;;;;;;10330961;28;20073;-79
2021/06/27 18:51:57;;;;;;;6.63;4.43;;;;;;;;;;10353203;28;20085;-79
2021/06/27 18:56:59;;;;;;;6.00;4.30;;;;;;;;;;10364405;28;20050;-78
2021/06/27 19:02:00;;;;;;;4.45;3.80;;;;;;;;;;10362381;28;20044;-79
2021/06/27 19:07:02;;;;;;;5.38;4.32;;;;;;;;;;10362687;28;20108;-79
2021/06/27 19:12:04;;;;;;;8.23;4.78;;;;;;;;;;10365032;28;20081;-79
2021/06/27 19:17:05;;;;;;;6.18;4.63;;;;;;;;;;10371699;28;20566;-79
2021/06/27 19:22:07;;;;;;;5.57;4.45;;;;;;;;;;10371045;28;20188;-79
2021/06/27 19:27:09;;;;;;;6.43;4.35;;;;;;;;;;10370529;28;20504;-79
2021/06/27 19:32:11;;;;;;;6.20;4.70;;;;;;;;;;10369517;28;20050;-79
2021/06/27 19:37:13;;;;;;;6.30;5.03;;;;;;;;;;10371272;28;20061;-79
2021/06/27 19:42:14;;;;;;;6.32;5.38;;;;;;;;;;10370299;28;20074;-79
2021/06/27 19:47:16;;;;;;;11.05;5.75;;;;;;;;;;10369913;28;20458;-79
2021/06/27 19:52:19;;;;;;;7.40;5.65;;;;;;;;;;10370337;28;20053;-79
2021/06/27 19:57:20;;;;;;;9.05;5.60;;;;;;;;;;10343786;28;20578;-79
2021/06/27 20:02:22;;;;;;;7.07;5.20;;;;;;;;;;10351319;28;20134;-79
2021/06/27 20:07:23;;;;;;;10.43;5.57;;;;;;;;;;10370137;28;20045;-79
2021/06/27 20:12:25;;;;;;;8.57;5.85;;;;;;;;;;10368758;28;20129;-79
2021/06/27 20:17:27;;;;;;;8.00;5.72;;;;;;;;;;10366304;28;20104;-79
2021/06/27 20:22:29;;;;;;;7.95;5.60;;;;;;;;;;10367964;28;20112;-79
2021/06/27 20:27:31;;;;;;;7.88;5.43;;;;;;;;;;10367733;28;20084;-78
2021/06/27 20:32:32;;;;;;;6.90;5.30;;;;;;;;;;10367976;28;20541;-79
2021/06/27 20:37:34;;;;;;;9.48;5.10;;;;;;;;;;10368175;28;20531;-79
2021/06/27 20:42:39;;;;;;;11.02;5.40;;;;;;;;;;10366612;28;20077;-79
2021/06/27 20:47:42;;;;;;;7.40;5.50;;;;;;;;;;10367811;28;20045;-79
2021/06/27 20:52:43;;;;;;;10.15;5.43;;;;;;;;;;10367432;28;20050;-79
2021/06/27 20:57:45;;;;;;;8.52;6.05;;;;;;;;;;10366154;28;20081;-79
2021/06/27 21:02:47;;;;;;;12.65;5.75;;;;;;;;;;10359415;28;20082;-80
2021/06/27 21:07:51;;;;;;;7.13;5.45;;;;;;;;;;10335527;28;20060;-79
2021/06/27 21:12:53;;;;;;;7.80;5.45;;;;;;;;;;10365936;28;20073;-79
2021/06/27 21:17:55;;;;;;;6.75;5.47;;;;;;;;;;10364964;28;20100;-79
2021/06/27 21:22:56;;;;;;;6.25;5.38;;;;;;;;;;10346755;28;20093;-79
2021/06/27 21:27:58;;;;;;;8.15;5.18;;;;;;;;;;10363335;28;20133;-79
2021/06/27 21:33:13;;;;;;;8.57;5.57;;;;;;;;;;10562337;27;20414;-55
2021/06/27 21:38:15;;;;;;;7.15;5.68;;;;;;;;;;10559905;28;20044;-54
2021/06/27 21:43:16;;;;;;;6.85;5.30;;;;;;;;;;10562349;28;20135;-53
2021/06/27 21:48:18;;;;;;;7.18;5.03;;;;;;;;;;10560267;28;20543;-53
2021/06/27 21:53:21;;;;;;;7.25;5.40;;;;;;;;;;10561336;28;20514;-57
2021/06/27 21:58:23;;;;;;;6.70;5.70;;;;;;;;;;10564165;28;20072;-54
2021/06/27 22:03:24;;;;;;;8.30;5.28;;;;;;;;;;10563934;28;20142;-54
2021/06/27 22:08:26;;;;;;;9.15;5.68;;;;;;;;;;10561903;28;20071;-53
2021/06/27 22:13:28;;;;;;;7.25;5.22;;;;;;;;;;10562158;28;20082;-53
2021/06/27 22:18:29;;;;;;;7.55;5.20;;;;;;;;;;10560820;28;20447;-54
2021/06/27 22:23:31;;;;;;;6.47;5.25;;;;;;;;;;10559376;28;20068;-52
2021/06/27 22:28:32;;;;;;;13.10;5.55;;;;;;;;;;10560877;28;20484;-54
2021/06/27 22:33:34;;;;;;;6.70;4.80;;;;;;;;;;10559971;28;20509;-52
2021/06/27 22:38:36;;;;;;;7.05;5.13;;;;;;;;;;10561013;28;20127;-53
2021/06/27 22:43:37;;;;;;;6.78;5.20;;;;;;;;;;10538832;28;20131;-48
2021/06/27 22:48:39;;;;;;;9.45;5.47;;;;;;;;;;10533013;28;20068;-53
2021/06/27 22:53:40;;;;;;;8.15;5.70;;;;;;;;;;10532118;28;20052;-54
2021/06/27 22:58:46;;;;;;;6.40;5.43;;;;;;;;;;10533761;28;20126;-54
2021/06/27 23:03:48;;;;;;;7.78;5.45;;;;;;;;;;10532693;28;20166;-53
2021/06/27 23:08:53;;;;;;;9.02;5.60;;;;;;;;;;10532982;28;20047;-54
2021/06/27 23:13:55;;;;;;;8.45;5.70;;;;;;;;;;10532805;28;20140;-54
2021/06/27 23:18:56;;;;;;;7.10;5.95;;;;;;;;;;10532015;28;20127;-54
2021/06/27 23:23:58;;;;;;;7.72;6.10;;;;;;;;;;10530823;28;20036;-54
2021/06/27 23:28:59;;;;;;;9.98;6.45;;;;;;;;;;10532100;28;20044;-54
2021/06/27 23:34:01;;;;;;;9.18;5.88;;;;;;;;;;10531553;28;20459;-50
2021/06/27 23:39:03;;;;;;;7.95;5.68;;;;;;;;;;10532465;28;20479;-54
2021/06/27 23:44:05;;;;;;;8.25;6.50;;;;;;;;;;10531793;28;20044;-54
2021/06/27 23:49:06;;;;;;;9.85;5.90;;;;;;;;;;10529752;28;20054;-54
2021/06/27 23:54:08;;;;;;;7.72;6.00;;;;;;;;;;10527910;28;20040;-52
2021/06/27 23:59:10;;;;;;;10.82;6.60;;;;;;;;;;10531046;28;20305;-53
